sensor_id;sensor_type;location;lat;lon;timestamp;P1;P2;P0
57623;PMS7003;43448;52.264;20.644;2023-02-01T00:00:01;5;5;
57623;PMS7003;43448;52.264;20.644;2023-02-01T00:10:00;6;4;
57623;PMS7003;43448;52.264;20.644;2023-02-01T00:20:00;4;4;
57623;PMS7003;43448;52.264;20.644;2023-02-01T00:30:00;6;6;
57623;PMS7003;43448;52.264;20.644;2023-02-01T00:40:00;3;3;
57623;PMS7003;43448;52.264;20.644;2023-02-01T00:50:00;7;3;
57623;PMS7003;43448;52.264;20.644;2023-02-01T01:00:01;3;2;
57623;PMS7003;43448;52.264;20.644;2023-02-01T01:10:00;2;2;
57623;PMS7003;43448;52.264;20.644;2023-02-01T01:20:00;2;2;
57623;PMS7003;43448;52.264;20.644;2023-02-01T01:30:00;2;2;
57623;PMS7003;43448;52.264;20.644;2023-02-01T01:40:00;3;3;
57623;PMS7003;43448;52.264;20.644;2023-02-01T01:50:01;2;2;
57623;PMS7003;43448;52.264;20.644;2023-02-01T02:00:03;2;2;
57623;PMS7003;43448;52.264;20.644;2023-02-01T02:10:00;2;2;
57623;PMS7003;43448;52.264;20.644;2023-02-01T02:20:08;2;2;
57623;PMS7003;43448;52.264;20.644;2023-02-01T02:30:22;1;1;
57623;PMS7003;43448;52.264;20.644;2023-02-01T02:40:03;2;2;
57623;PMS7003;43448;52.264;20.644;2023-02-01T02:50:03;1;1;
57623;PMS7003;43448;52.264;20.644;2023-02-01T03:00:02;1;1;
57623;PMS7003;43448;52.264;20.644;2023-02-01T03:10:01;1;1;
57623;PMS7003;43448;52.264;20.644;2023-02-01T03:20:01;1;1;
57623;PMS7003;43448;52.264;20.644;2023-02-01T03:30:02;1;1;
57623;PMS7003;43448;52.264;20.644;2023-02-01T03:40:01;1;1;
57623;PMS7003;43448;52.264;20.644;2023-02-01T03:50:01;4;1;
57623;PMS7003;43448;52.264;20.644;2023-02-01T04:00:03;2;1;
57623;PMS7003;43448;52.264;20.644;2023-02-01T04:10:00;1;1;
57623;PMS7003;43448;52.264;20.644;2023-02-01T04:20:00;1;1;
57623;PMS7003;43448;52.264;20.644;2023-02-01T04:30:00;1;1;
57623;PMS7003;43448;52.264;20.644;2023-02-01T04:40:00;0;0;
57623;PMS7003;43448;52.264;20.644;2023-02-01T04:50:00;1;1;
57623;PMS7003;43448;52.264;20.644;2023-02-01T05:00:00;3;2;
57623;PMS7003;43448;52.264;20.644;2023-02-01T05:10:00;0;0;
57623;PMS7003;43448;52.264;20.644;2023-02-01T05:20:00;5;1;
57623;PMS7003;43448;52.264;20.644;2023-02-01T05:30:00;21;13;
57623;PMS7003;43448;52.264;20.644;2023-02-01T05:40:00;25;14;
57623;PMS7003;43448;52.264;20.644;2023-02-01T05:50:00;15;13;
57623;PMS7003;43448;52.264;20.644;2023-02-01T06:00:00;15;8;
57623;PMS7003;43448;52.264;20.644;2023-02-01T06:10:00;8;6;
57623;PMS7003;43448;52.264;20.644;2023-02-01T06:20:00;8;8;
57623;PMS7003;43448;52.264;20.644;2023-02-01T06:30:00;9;7;
57623;PMS7003;43448;52.264;20.644;2023-02-01T06:40:00;17;8;
57623;PMS7003;43448;52.264;20.644;2023-02-01T06:50:00;7;5;
57623;PMS7003;43448;52.264;20.644;2023-02-01T07:00:01;6;6;
57623;PMS7003;43448;52.264;20.644;2023-02-01T07:10:00;5;4;
57623;PMS7003;43448;52.264;20.644;2023-02-01T07:20:00;6;4;
57623;PMS7003;43448;52.264;20.644;2023-02-01T07:30:00;9;4;
57623;PMS7003;43448;52.264;20.644;2023-02-01T07:40:00;9;3;
57623;PMS7003;43448;52.264;20.644;2023-02-01T07:50:00;6;3;
57623;PMS7003;43448;52.264;20.644;2023-02-01T08:00:00;4;2;
57623;PMS7003;43448;52.264;20.644;2023-02-01T08:10:00;4;4;
57623;PMS7003;43448;52.264;20.644;2023-02-01T08:20:00;2;2;
57623;PMS7003;43448;52.264;20.644;2023-02-01T08:30:00;5;4;
57623;PMS7003;43448;52.264;20.644;2023-02-01T08:40:00;3;2;
57623;PMS7003;43448;52.264;20.644;2023-02-01T08:50:00;5;3;
57623;PMS7003;43448;52.264;20.644;2023-02-01T09:00:01;7;4;
57623;PMS7003;43448;52.264;20.644;2023-02-01T09:10:00;6;3;
57623;PMS7003;43448;52.264;20.644;2023-02-01T09:20:00;2;2;
57623;PMS7003;43448;52.264;20.644;2023-02-01T09:30:00;3;2;
57623;PMS7003;43448;52.264;20.644;2023-02-01T09:40:00;4;3;
57623;PMS7003;43448;52.264;20.644;2023-02-01T09:50:02;3;2;
57623;PMS7003;43448;52.264;20.644;2023-02-01T10:00:06;3;3;
57623;PMS7003;43448;52.264;20.644;2023-02-01T10:10:01;3;2;
57623;PMS7003;43448;52.264;20.644;2023-02-01T10:20:03;3;3;
57623;PMS7003;43448;52.264;20.644;2023-02-01T10:30:04;0;0;
57623;PMS7003;43448;52.264;20.644;2023-02-01T10:40:02;5;3;
57623;PMS7003;43448;52.264;20.644;2023-02-01T10:50:03;2;1;
57623;PMS7003;43448;52.264;20.644;2023-02-01T11:00:02;3;3;
57623;PMS7003;43448;52.264;20.644;2023-02-01T11:10:00;2;2;
57623;PMS7003;43448;52.264;20.644;2023-02-01T11:20:01;2;0;
57623;PMS7003;43448;52.264;20.644;2023-02-01T11:30:00;4;4;
57623;PMS7003;43448;52.264;20.644;2023-02-01T11:40:02;2;2;
57623;PMS7003;43448;52.264;20.644;2023-02-01T11:50:01;2;2;
57623;PMS7003;43448;52.264;20.644;2023-02-01T12:00:05;3;2;
57623;PMS7003;43448;52.264;20.644;2023-02-01T12:10:03;4;4;
57623;PMS7003;43448;52.264;20.644;2023-02-01T12:20:02;3;1;
57623;PMS7003;43448;52.264;20.644;2023-02-01T12:30:07;4;2;
57623;PMS7003;43448;52.264;20.644;2023-02-01T12:40:02;3;1;
57623;PMS7003;43448;52.264;20.644;2023-02-01T12:50:01;2;1;
57623;PMS7003;43448;52.264;20.644;2023-02-01T13:00:04;1;1;
57623;PMS7003;43448;52.264;20.644;2023-02-01T13:10:01;1;1;
57623;PMS7003;43448;52.264;20.644;2023-02-01T13:20:03;3;2;
57623;PMS7003;43448;52.264;20.644;2023-02-01T13:30:01;4;3;
57623;PMS7003;43448;52.264;20.644;2023-02-01T13:40:10;6;4;
57623;PMS7003;43448;52.264;20.644;2023-02-01T13:50:01;2;2;
57623;PMS7003;43448;52.264;20.644;2023-02-01T14:00:09;3;3;
57623;PMS7003;43448;52.264;20.644;2023-02-01T14:10:36;7;4;
57623;PMS7003;43448;52.264;20.644;2023-02-01T14:30:01;4;4;
57623;PMS7003;43448;52.264;20.644;2023-02-01T14:40:01;4;4;
57623;PMS7003;43448;52.264;20.644;2023-02-01T14:50:11;4;3;
57623;PMS7003;43448;52.264;20.644;2023-02-01T15:00:05;8;6;
57623;PMS7003;43448;52.264;20.644;2023-02-01T15:10:01;5;3;
57623;PMS7003;43448;52.264;20.644;2023-02-01T15:20:01;5;4;
57623;PMS7003;43448;52.264;20.644;2023-02-01T15:30:04;5;4;
57623;PMS7003;43448;52.264;20.644;2023-02-01T15:40:05;6;4;
57623;PMS7003;43448;52.264;20.644;2023-02-01T15:50:00;5;5;
57623;PMS7003;43448;52.264;20.644;2023-02-01T16:00:02;3;3;
57623;PMS7003;43448;52.264;20.644;2023-02-01T16:10:01;7;5;
57623;PMS7003;43448;52.264;20.644;2023-02-01T16:20:00;6;6;
57623;PMS7003;43448;52.264;20.644;2023-02-01T16:30:00;8;5;
57623;PMS7003;43448;52.264;20.644;2023-02-01T16:40:00;6;4;
57623;PMS7003;43448;52.264;20.644;2023-02-01T16:50:00;7;5;
57623;PMS7003;43448;52.264;20.644;2023-02-01T17:00:01;7;6;
57623;PMS7003;43448;52.264;20.644;2023-02-01T17:10:00;6;6;
57623;PMS7003;43448;52.264;20.644;2023-02-01T17:20:00;6;5;
57623;PMS7003;43448;52.264;20.644;2023-02-01T17:30:00;6;6;
57623;PMS7003;43448;52.264;20.644;2023-02-01T17:40:00;6;5;
57623;PMS7003;43448;52.264;20.644;2023-02-01T17:50:00;8;6;
57623;PMS7003;43448;52.264;20.644;2023-02-01T18:00:01;7;5;
57623;PMS7003;43448;52.264;20.644;2023-02-01T18:10:00;5;5;
57623;PMS7003;43448;52.264;20.644;2023-02-01T18:20:00;5;5;
57623;PMS7003;43448;52.264;20.644;2023-02-01T18:30:00;3;3;
57623;PMS7003;43448;52.264;20.644;2023-02-01T18:40:00;6;6;
57623;PMS7003;43448;52.264;20.644;2023-02-01T18:50:00;3;3;
57623;PMS7003;43448;52.264;20.644;2023-02-01T19:00:00;4;4;
57623;PMS7003;43448;52.264;20.644;2023-02-01T19:10:00;5;4;
57623;PMS7003;43448;52.264;20.644;2023-02-01T19:20:01;5;4;
57623;PMS7003;43448;52.264;20.644;2023-02-01T19:30:00;4;4;
57623;PMS7003;43448;52.264;20.644;2023-02-01T19:40:00;3;3;
57623;PMS7003;43448;52.264;20.644;2023-02-01T19:50:00;5;4;
57623;PMS7003;43448;52.264;20.644;2023-02-01T20:00:00;5;5;
57623;PMS7003;43448;52.264;20.644;2023-02-01T20:10:00;6;4;
57623;PMS7003;43448;52.264;20.644;2023-02-01T20:20:00;6;4;
57623;PMS7003;43448;52.264;20.644;2023-02-01T20:30:00;6;6;
57623;PMS7003;43448;52.264;20.644;2023-02-01T20:40:00;5;4;
57623;PMS7003;43448;52.264;20.644;2023-02-01T20:50:00;6;5;
57623;PMS7003;43448;52.264;20.644;2023-02-01T21:00:00;3;3;
57623;PMS7003;43448;52.264;20.644;2023-02-01T21:10:00;8;5;
57623;PMS7003;43448;52.264;20.644;2023-02-01T21:20:00;5;4;
57623;PMS7003;43448;52.264;20.644;2023-02-01T21:30:00;4;4;
57623;PMS7003;43448;52.264;20.644;2023-02-01T21:40:00;7;5;
57623;PMS7003;43448;52.264;20.644;2023-02-01T21:50:00;8;5;
57623;PMS7003;43448;52.264;20.644;2023-02-01T22:00:00;5;4;
57623;PMS7003;43448;52.264;20.644;2023-02-01T22:10:00;6;6;
57623;PMS7003;43448;52.264;20.644;2023-02-01T22:20:01;5;3;
57623;PMS7003;43448;52.264;20.644;2023-02-01T22:30:00;9;6;
57623;PMS7003;43448;52.264;20.644;2023-02-01T22:40:00;7;4;
57623;PMS7003;43448;52.264;20.644;2023-02-01T22:50:00;3;3;
57623;PMS7003;43448;52.264;20.644;2023-02-01T23:00:00;4;4;
57623;PMS7003;43448;52.264;20.644;2023-02-01T23:10:01;4;4;
57623;PMS7003;43448;52.264;20.644;2023-02-01T23:20:00;7;6;
57623;PMS7003;43448;52.264;20.644;2023-02-01T23:30:00;7;5;
57623;PMS7003;43448;52.264;20.644;2023-02-01T23:40:00;7;5;
57623;PMS7003;43448;52.264;20.644;2023-02-01T23:50:00;5;5;
